Time;durP1;ratioP1;P1;durP2;ratioP2;P2;SDS_P1;SDS_P2;PMS_P1;PMS_P2;Temp;Humidity;BMP_temperature;BMP_pressure;BME280_temperature;BME280_humidity;BME280_pressure;Samples;Min_cycle;Max_cycle;Signal;HPM_P1;HPM_P2
2022/01/12 00:00:21;;;;;;;27.67;11.95;;;;;;;2.28;94.14;103588.22;5069556;28;20403;-75
2022/01/12 00:02:47;;;;;;;27.60;11.70;;;;;;;2.30;94.49;103581.50;5069556;28;20056;-75
2022/01/12 00:05:12;;;;;;;27.52;12.38;;;;;;;2.31;95.39;103586.72;5050935;28;20055;-75
2022/01/12 00:07:38;;;;;;;27.65;12.02;;;;;;;2.35;95.58;103582.63;5069192;28;20028;-75
2022/01/12 00:10:04;;;;;;;28.77;12.27;;;;;;;2.36;95.29;103594.63;5068269;28;20028;-75
2022/01/12 00:12:29;;;;;;;27.98;11.93;;;;;;;2.35;94.65;103601.41;5069232;28;20042;-75
2022/01/12 00:14:54;;;;;;;27.13;12.30;;;;;;;2.42;94.56;103612.00;5048780;28;20040;-75
2022/01/12 00:17:20;;;;;;;26.67;11.45;;;;;;;2.43;94.58;103617.19;5068838;28;20426;-75
2022/01/12 00:19:45;;;;;;;28.60;12.88;;;;;;;2.45;95.07;103605.38;5068503;28;20451;-75
2022/01/12 00:22:12;;;;;;;28.02;13.05;;;;;;;2.46;95.17;103603.69;5068891;28;20063;-75
2022/01/12 00:33:13;;;;;;;30.35;13.05;;;;;;;2.55;95.07;103607.63;5069143;28;20039;-75
2022/01/12 00:35:46;;;;;;;31.45;14.18;;;;;;;2.54;94.43;103616.09;5042219;28;20032;-75
2022/01/12 00:38:13;;;;;;;33.00;14.25;;;;;;;2.55;94.59;103622.97;5074466;28;20031;-75
2022/01/12 00:40:44;;;;;;;36.08;15.13;;;;;;;2.54;94.49;103633.13;5068783;28;20068;-75
2022/01/12 00:43:11;;;;;;;30.95;14.15;;;;;;;2.48;95.05;103631.13;5069303;28;20029;-75
2022/01/12 00:45:41;;;;;;;38.00;15.02;;;;;;;2.47;95.55;103636.16;5050914;28;20098;-75
2022/01/12 00:48:06;;;;;;;35.28;14.63;;;;;;;2.39;95.57;103639.16;5068859;28;20115;-75
2022/01/12 00:50:32;;;;;;;31.58;14.18;;;;;;;2.35;95.88;103641.50;5050642;28;20115;-75
2022/01/12 00:52:57;;;;;;;32.63;13.82;;;;;;;2.29;96.87;103649.72;5075370;28;20034;-75
2022/01/12 00:55:23;;;;;;;30.40;13.45;;;;;;;2.23;96.58;103643.38;5069132;28;20036;-75
2022/01/12 00:57:49;;;;;;;26.50;12.88;;;;;;;2.20;96.76;103654.31;5069129;28;20390;-75
2022/01/12 01:00:15;;;;;;;30.85;14.02;;;;;;;2.14;97.44;103648.84;5068942;28;20090;-75
2022/01/12 01:02:40;;;;;;;33.80;14.63;;;;;;;2.11;97.95;103648.72;5068541;28;20028;-75
2022/01/12 01:05:07;;;;;;;33.58;14.20;;;;;;;2.09;98.52;103652.84;5068060;28;20041;-75
2022/01/12 01:07:32;;;;;;;33.78;14.30;;;;;;;2.08;98.76;103650.19;5056360;28;20036;-75
2022/01/12 01:10:05;;;;;;;32.50;13.90;;;;;;;2.08;98.96;103658.75;5068451;28;20036;-76
2022/01/12 01:12:32;;;;;;;30.70;14.63;;;;;;;2.07;99.68;103653.53;5068939;28;20028;-75
2022/01/12 01:15:09;;;;;;;34.58;15.05;;;;;;;2.06;100.00;103655.22;5047294;28;20048;-75
2022/01/12 01:25:50;;;;;;;34.38;14.85;;;;;;;2.02;100.00;103627.72;5068685;28;20085;-76
2022/01/12 01:28:17;;;;;;;33.88;15.13;;;;;;;2.01;100.00;103637.84;5068774;28;20111;-75
2022/01/12 01:30:44;;;;;;;36.83;14.88;;;;;;;1.98;100.00;103638.56;5068523;28;20109;-75
2022/01/12 01:33:11;;;;;;;36.35;15.30;;;;;;;1.98;100.00;103643.66;5067865;28;20032;-76
2022/01/12 01:35:43;;;;;;;38.25;15.57;;;;;;;1.99;100.00;103651.44;5053966;28;20047;-76
2022/01/12 01:38:09;;;;;;;36.70;15.80;;;;;;;2.00;100.00;103652.31;5071032;28;20558;-76
2022/01/12 01:40:37;;;;;;;38.47;15.85;;;;;;;2.01;100.00;103654.09;5064999;28;20649;-76
2022/01/12 01:53:47;;;;;;;41.08;16.67;;;;;;;2.04;100.00;103645.72;5078432;28;20119;-76
2022/01/12 01:56:12;;;;;;;41.20;16.48;;;;;;;2.01;100.00;103637.84;5072571;28;20103;-76
2022/01/12 01:58:38;;;;;;;36.85;16.35;;;;;;;2.00;100.00;103639.53;5071613;28;20343;-76
2022/01/12 02:01:04;;;;;;;38.47;15.77;;;;;;;1.98;100.00;103643.66;5071393;28;20545;-76
2022/01/12 02:03:30;;;;;;;36.63;16.17;;;;;;;1.98;100.00;103633.44;5070420;28;20395;-76
2022/01/12 02:05:59;;;;;;;37.75;15.75;;;;;;;1.99;100.00;103633.53;5069155;28;20031;-76
2022/01/12 02:08:24;;;;;;;38.58;16.30;;;;;;;1.98;100.00;103633.44;5063036;28;20028;-76
2022/01/12 02:10:58;;;;;;;44.80;17.40;;;;;;;1.98;100.00;103628.31;5053356;28;20033;-76
2022/01/12 02:13:24;;;;;;;36.97;16.45;;;;;;;1.97;100.00;103622.34;5048967;28;20021;-76
2022/01/12 02:15:51;;;;;;;40.42;16.13;;;;;;;1.95;100.00;103623.94;5070937;28;20367;-76
2022/01/12 02:18:31;;;;;;;35.92;16.23;;;;;;;1.96;100.00;103633.38;5066914;28;20028;-76
2022/01/12 02:40:56;;;;;;;37.30;16.73;;;;;;;2.01;100.00;103660.88;5060812;28;20056;-76
2022/01/12 02:53:37;;;;;;;43.93;16.67;;;;;;;1.99;100.00;103658.22;5063285;28;20144;-80
2022/01/12 02:54:18;;;;;;;43.88;16.58;;;;;;;1.98;100.00;103672.69;5072624;28;20085;-80
2022/01/12 02:56:44;;;;;;;48.50;17.75;;;;;;;1.99;100.00;103668.47;5070390;28;20024;-79
2022/01/12 02:59:10;;;;;;;39.67;17.08;;;;;;;2.00;100.00;103680.47;5074257;28;20028;-80
2022/01/12 03:02:14;;;;;;;48.08;17.73;;;;;;;2.00;100.00;103677.91;5070086;28;20036;-79
2022/01/12 03:04:23;;;;;;;38.47;16.88;;;;;;;1.99;100.00;103681.25;5066966;28;20035;-80
2022/01/12 03:06:50;;;;;;;45.70;17.80;;;;;;;1.98;100.00;103682.91;5069634;28;20028;-80
2022/01/12 03:09:16;;;;;;;43.22;17.83;;;;;;;1.98;100.00;103694.81;5070384;28;20029;-80
2022/01/12 03:11:41;;;;;;;41.97;17.50;;;;;;;1.99;100.00;103696.59;5070412;28;20364;-79
2022/01/12 03:14:07;;;;;;;39.80;17.50;;;;;;;1.97;100.00;103696.53;5051927;28;20059;-79
2022/01/12 03:16:32;;;;;;;45.20;17.30;;;;;;;1.99;100.00;103706.81;5048006;28;20103;-79
2022/01/12 03:19:00;;;;;;;45.85;18.52;;;;;;;2.00;100.00;103708.59;5063121;28;20067;-76
2022/01/12 03:21:28;;;;;;;45.28;18.20;;;;;;;1.99;100.00;103710.28;5063386;28;20020;-76
2022/01/12 03:23:54;;;;;;;43.60;17.70;;;;;;;1.97;100.00;103716.09;5070416;28;20039;-76
2022/01/12 03:26:21;;;;;;;49.55;18.63;;;;;;;1.98;100.00;103717.84;5052226;28;20020;-76
2022/01/12 03:28:54;;;;;;;44.80;17.80;;;;;;;1.95;100.00;103712.56;5069609;28;20103;-76
2022/01/12 03:31:27;;;;;;;51.72;18.58;;;;;;;1.96;100.00;103715.22;5064548;28;20508;-76
2022/01/12 03:33:58;;;;;;;48.13;18.23;;;;;;;1.97;100.00;103717.00;5065090;28;20060;-76
2022/01/12 03:38:56;;;;;;;48.13;19.60;;;;;;;1.99;100.00;103711.94;5062639;28;20555;-75
2022/01/12 03:41:24;;;;;;;44.72;18.35;;;;;;;2.01;100.00;103709.47;5069266;28;20123;-76
2022/01/12 03:43:49;;;;;;;46.38;18.75;;;;;;;2.01;100.00;103720.59;5065004;28;20020;-76
2022/01/12 03:46:19;;;;;;;46.50;18.45;;;;;;;1.99;100.00;103711.94;5069402;28;20101;-76
2022/01/12 03:48:44;;;;;;;47.67;19.55;;;;;;;1.98;100.00;103703.38;5068983;28;20036;-75
2022/01/12 03:51:09;;;;;;;44.63;18.55;;;;;;;1.98;100.00;103708.50;5060713;28;20032;-76
2022/01/12 03:53:35;;;;;;;51.85;19.58;;;;;;;2.01;100.00;103707.81;5052852;28;20032;-76
2022/01/12 03:56:00;;;;;;;46.33;19.58;;;;;;;2.01;100.00;103725.72;5072721;28;20403;-75
2022/01/12 03:58:25;;;;;;;46.45;19.27;;;;;;;1.98;100.00;103726.41;5069571;28;20043;-75
2022/01/12 04:00:51;;;;;;;47.70;19.80;;;;;;;2.00;100.00;103739.28;5069100;28;20032;-76
2022/01/12 04:03:17;;;;;;;53.25;21.45;;;;;;;1.97;100.00;103732.34;5069407;28;20115;-76
2022/01/12 04:08:20;;;;;;;51.83;21.10;;;;;;;1.92;100.00;103737.97;5056381;28;20041;-75
2022/01/12 04:10:51;;;;;;;50.95;20.42;;;;;;;1.88;100.00;103729.25;5069419;28;20499;-75
2022/01/12 04:13:17;;;;;;;52.70;20.98;;;;;;;1.92;100.00;103735.41;5051406;28;20398;-76
2022/01/12 04:15:48;;;;;;;50.38;19.77;;;;;;;1.95;100.00;103740.72;5070078;28;20475;-76
2022/01/12 04:18:13;;;;;;;52.38;21.67;;;;;;;1.96;100.00;103729.69;5069421;28;20529;-76
2022/01/12 04:20:46;;;;;;;55.80;21.63;;;;;;;1.98;100.00;103728.97;5067589;28;20028;-75
2022/01/12 04:23:17;;;;;;;58.38;22.17;;;;;;;1.97;100.00;103736.56;5071023;28;20120;-76
2022/01/12 04:25:43;;;;;;;55.55;22.08;;;;;;;1.99;100.00;103740.06;5068813;28;20039;-75
2022/01/12 04:28:08;;;;;;;55.88;22.73;;;;;;;1.99;100.00;103735.84;5069112;28;20035;-76
2022/01/12 04:30:34;;;;;;;59.15;21.65;;;;;;;2.01;100.00;103730.81;5069426;28;20024;-76
2022/01/12 04:32:59;;;;;;;59.05;22.90;;;;;;;2.04;100.00;103733.56;5069126;28;20029;-76
2022/01/12 04:35:30;;;;;;;59.13;22.30;;;;;;;2.05;100.00;103727.63;5068320;28;20043;-76
2022/01/12 04:37:55;;;;;;;54.10;21.70;;;;;;;2.05;100.00;103729.34;5068308;28;20021;-76
2022/01/12 04:40:20;;;;;;;53.40;20.95;;;;;;;2.05;100.00;103722.53;5050717;28;20086;-76
2022/01/12 04:42:45;;;;;;;54.42;22.35;;;;;;;2.07;100.00;103722.63;5068749;28;20347;-76
2022/01/12 04:45:18;;;;;;;53.33;21.95;;;;;;;2.06;100.00;103710.63;5069175;28;20158;-76
2022/01/12 04:48:00;;;;;;;55.80;22.27;;;;;;;2.04;100.00;103707.13;5068787;28;20063;-77
2022/01/12 04:50:28;;;;;;;54.30;22.27;;;;;;;2.06;100.00;103721.72;5062668;28;20032;-76
2022/01/12 04:52:55;;;;;;;52.60;21.00;;;;;;;2.04;100.00;103723.34;5050461;28;20029;-76
2022/01/12 04:55:21;;;;;;;51.85;20.63;;;;;;;2.03;100.00;103721.56;5050687;28;20228;-76
2022/01/12 04:57:46;;;;;;;59.28;22.92;;;;;;;2.03;100.00;103716.47;5068690;28;20026;-76
2022/01/12 05:00:16;;;;;;;57.45;23.00;;;;;;;2.00;100.00;103698.38;5069045;28;20040;-76
2022/01/12 05:13:24;;;;;;;56.55;22.08;;;;;;;1.99;100.00;103717.94;5072403;28;20058;-76
2022/01/12 05:15:50;;;;;;;60.30;22.48;;;;;;;1.98;100.00;103722.97;5072373;28;20115;-76
2022/01/12 05:18:15;;;;;;;60.80;22.35;;;;;;;1.98;100.00;103722.97;5078459;28;20024;-76
2022/01/12 05:20:41;;;;;;;63.60;24.10;;;;;;;2.00;100.00;103726.50;5070489;28;20028;-76
2022/01/12 05:23:06;;;;;;;57.13;23.98;;;;;;;1.99;100.00;103725.63;5071054;28;20020;-76
2022/01/12 05:25:31;;;;;;;56.40;22.23;;;;;;;1.99;100.00;103727.28;5072124;28;20040;-76
2022/01/12 05:27:57;;;;;;;59.67;21.85;;;;;;;2.01;100.00;103728.28;5072234;28;20040;-76
2022/01/12 05:30:22;;;;;;;61.75;22.85;;;;;;;2.01;100.00;103729.94;5072267;28;20029;-76
2022/01/12 05:32:48;;;;;;;62.17;23.45;;;;;;;2.03;100.00;103736.03;5073838;28;20082;-77
2022/01/12 05:35:16;;;;;;;62.03;23.10;;;;;;;2.06;100.00;103738.75;5071301;28;20376;-77
2022/01/12 05:37:44;;;;;;;61.72;23.27;;;;;;;2.08;100.00;103749.97;5053916;28;20051;-76
2022/01/12 05:40:09;;;;;;;61.85;24.08;;;;;;;2.05;100.00;103748.09;5048687;28;20061;-76
2022/01/12 05:42:35;;;;;;;60.30;23.38;;;;;;;2.07;100.00;103743.06;5033729;28;20098;-76
2022/01/12 05:45:00;;;;;;;59.85;23.50;;;;;;;2.11;100.00;103739.94;5042654;28;20020;-76
2022/01/12 05:47:40;;;;;;;65.97;22.25;;;;;;;2.12;100.00;103750.22;5047322;28;20199;-77
2022/01/12 05:50:06;;;;;;;63.00;24.40;;;;;;;2.12;100.00;103742.53;5034540;28;20123;-77
2022/01/12 05:52:31;;;;;;;62.72;23.85;;;;;;;2.13;100.00;103744.31;5042218;28;20071;-76
2022/01/12 05:54:56;;;;;;;61.03;22.38;;;;;;;2.13;100.00;103746.88;5048036;28;20027;-76
2022/01/12 05:57:22;;;;;;;65.65;24.38;;;;;;;2.11;100.00;103733.13;5027233;28;20057;-76
2022/01/12 05:59:47;;;;;;;61.97;23.77;;;;;;;2.14;100.00;103735.84;5040422;28;20435;-76
2022/01/12 06:02:12;;;;;;;59.20;23.92;;;;;;;2.18;100.00;103739.47;5047740;28;20044;-76
2022/01/12 06:04:38;;;;;;;62.47;24.48;;;;;;;2.19;100.00;103742.09;5051358;28;20021;-76
2022/01/12 06:07:03;;;;;;;66.80;24.23;;;;;;;2.25;100.00;103744.16;5043847;28;20044;-76
2022/01/12 06:09:29;;;;;;;65.75;24.27;;;;;;;2.25;100.00;103739.88;5043979;28;20096;-75
2022/01/12 06:11:54;;;;;;;65.38;24.00;;;;;;;2.26;100.00;103748.44;5037559;28;20044;-76
2022/01/12 06:14:21;;;;;;;65.70;24.23;;;;;;;2.26;100.00;103745.88;5050668;28;20021;-75
2022/01/12 06:16:46;;;;;;;68.22;24.35;;;;;;;2.24;100.00;103756.06;5035993;28;20070;-76
2022/01/12 06:19:11;;;;;;;67.65;23.70;;;;;;;2.23;100.00;103761.97;5053140;28;20024;-76
2022/01/12 06:21:37;;;;;;;62.92;23.65;;;;;;;2.23;100.00;103772.22;5054328;28;20056;-76
2022/01/12 06:24:02;;;;;;;62.45;24.73;;;;;;;2.21;100.00;103775.47;5051511;28;20095;-76
2022/01/12 06:26:28;;;;;;;65.80;23.80;;;;;;;2.18;100.00;103781.31;5043326;28;20025;-76
2022/01/12 06:29:43;;;;;;;65.47;24.50;;;;;;;2.12;100.00;103782.59;5042374;28;20064;-76
2022/01/12 06:31:44;;;;;;;68.68;26.45;;;;;;;2.12;100.00;103787.72;5036740;28;20119;-76
2022/01/12 06:34:09;;;;;;;65.47;24.13;;;;;;;2.12;100.00;103788.59;5041763;28;20033;-76
2022/01/12 06:36:34;;;;;;;66.35;24.58;;;;;;;2.07;100.00;103791.69;5041558;28;20530;-76
2022/01/12 06:39:00;;;;;;;65.53;25.33;;;;;;;2.10;100.00;103797.00;5038629;28;20095;-76
2022/01/12 06:41:25;;;;;;;69.28;24.50;;;;;;;2.08;100.00;103802.03;5041232;28;20081;-76
2022/01/12 06:43:51;;;;;;;69.40;24.73;;;;;;;2.08;100.00;103816.47;5039582;28;20095;-76
2022/01/12 06:46:25;;;;;;;66.25;23.77;;;;;;;2.08;100.00;103822.47;5037572;28;20025;-76
2022/01/12 06:48:50;;;;;;;69.40;24.70;;;;;;;2.11;100.00;103816.69;5032648;28;20128;-76
2022/01/12 06:51:16;;;;;;;69.63;24.92;;;;;;;2.15;100.00;103811.81;5050846;28;20115;-76
2022/01/12 06:53:41;;;;;;;70.03;25.30;;;;;;;2.19;100.00;103805.19;5041034;28;20372;-76
2022/01/12 06:56:08;;;;;;;70.70;26.33;;;;;;;2.19;100.00;103816.31;5040935;28;20060;-77
2022/01/12 06:58:33;;;;;;;71.40;25.38;;;;;;;2.20;100.00;103815.50;5031397;28;20029;-77
2022/01/12 07:00:59;;;;;;;79.53;26.58;;;;;;;2.20;100.00;103824.88;5025269;28;20045;-77
2022/01/12 07:03:24;;;;;;;71.75;25.55;;;;;;;2.18;100.00;103826.47;5037831;28;20029;-77
2022/01/12 07:05:49;;;;;;;77.60;25.33;;;;;;;2.17;100.00;103827.25;5040411;28;20099;-76
2022/01/12 07:08:15;;;;;;;76.43;26.27;;;;;;;2.16;100.00;103834.06;5048642;28;20029;-76
2022/01/12 07:10:40;;;;;;;71.97;26.33;;;;;;;2.16;100.00;103828.94;5063097;28;20031;-77
2022/01/12 07:13:10;;;;;;;66.45;24.02;;;;;;;2.17;100.00;103833.28;5053943;28;20108;-77
2022/01/12 07:15:36;;;;;;;70.15;24.95;;;;;;;2.21;100.00;103842.00;5043982;28;20052;-77
2022/01/12 07:18:04;;;;;;;69.60;24.80;;;;;;;2.20;100.00;103824.88;5049768;28;20029;-77
2022/01/12 07:20:29;;;;;;;79.07;24.92;;;;;;;2.19;100.00;103831.66;5042522;28;20140;-77
2022/01/12 07:22:55;;;;;;;73.57;24.92;;;;;;;2.19;100.00;103825.66;5045415;28;20376;-78
2022/01/12 07:25:20;;;;;;;71.90;24.40;;;;;;;2.24;100.00;103840.50;5053505;28;20064;-78
2022/01/12 07:27:46;;;;;;;74.13;24.48;;;;;;;2.26;100.00;103838.91;5048730;28;20076;-78
2022/01/12 07:30:11;;;;;;;73.43;25.83;;;;;;;2.27;100.00;103852.59;5049658;28;20435;-78
2022/01/12 07:32:37;;;;;;;75.80;25.13;;;;;;;2.29;100.00;103848.44;5052957;28;20034;-78
2022/01/12 07:35:04;;;;;;;80.35;27.27;;;;;;;2.26;100.00;103853.38;5055623;28;20045;-78
2022/01/12 07:37:29;;;;;;;75.85;26.38;;;;;;;2.26;100.00;103864.50;5038117;28;20127;-78
2022/01/12 07:39:54;;;;;;;73.43;25.73;;;;;;;2.26;100.00;103871.28;5046753;28;20132;-79
2022/01/12 07:42:19;;;;;;;71.90;24.73;;;;;;;2.28;100.00;103872.25;5043820;28;20055;-79
2022/01/12 07:44:45;;;;;;;69.65;25.00;;;;;;;2.31;100.00;103885.25;5045591;28;20283;-79
2022/01/12 07:47:10;;;;;;;73.63;25.40;;;;;;;2.27;100.00;103871.38;5041850;28;20060;-79
2022/01/12 07:49:36;;;;;;;68.75;24.92;;;;;;;2.30;100.00;103875.81;5046397;28;20037;-79
2022/01/12 07:52:03;;;;;;;66.30;24.27;;;;;;;2.31;100.00;103872.47;5045592;28;20029;-79
2022/01/12 07:54:29;;;;;;;75.60;24.88;;;;;;;2.33;100.00;103892.22;5048137;28;20063;-79
2022/01/12 07:56:54;;;;;;;75.45;25.65;;;;;;;2.34;100.00;103886.31;5045785;28;20017;-79
2022/01/12 07:59:19;;;;;;;80.68;25.17;;;;;;;2.35;100.00;103898.31;5034845;28;20217;-79
2022/01/12 08:01:44;;;;;;;78.78;24.35;;;;;;;2.31;100.00;103893.81;5046931;28;20025;-79
2022/01/12 08:04:10;;;;;;;74.13;24.98;;;;;;;2.36;100.00;103906.88;5039917;28;20210;-79
2022/01/12 08:06:35;;;;;;;84.13;25.73;;;;;;;2.33;100.00;103911.81;5041885;28;20368;-78
2022/01/12 08:09:00;;;;;;;84.72;25.77;;;;;;;2.37;100.00;103914.66;5047901;28;20052;-79
2022/01/12 08:11:26;;;;;;;88.13;26.17;;;;;;;2.38;100.00;103926.66;5029773;28;20017;-79
2022/01/12 08:13:52;;;;;;;82.53;25.42;;;;;;;2.39;100.00;103938.66;5040830;28;20462;-79
2022/01/12 08:16:18;;;;;;;84.28;25.92;;;;;;;2.42;100.00;103939.63;5037933;28;20056;-79
2022/01/12 08:18:43;;;;;;;84.53;26.52;;;;;;;2.44;100.00;103927.81;5024963;28;20114;-79
2022/01/12 08:21:08;;;;;;;87.95;25.38;;;;;;;2.46;100.00;103928.78;5036608;28;20021;-79
2022/01/12 08:23:34;;;;;;;81.95;26.08;;;;;;;2.49;100.00;103940.09;5029739;28;20021;-80
2022/01/12 08:26:00;;;;;;;85.32;26.27;;;;;;;2.50;100.00;103936.75;5046243;28;20029;-77
2022/01/12 08:28:25;;;;;;;78.38;25.08;;;;;;;2.53;100.00;103931.78;5045795;28;20043;-81
2022/01/12 08:30:51;;;;;;;84.63;25.10;;;;;;;2.55;100.00;103939.56;5054467;28;20056;-81
2022/01/12 08:33:17;;;;;;;83.55;25.38;;;;;;;2.53;100.00;103942.03;5053511;28;20052;-81
2022/01/12 08:35:42;;;;;;;87.28;25.23;;;;;;;2.53;100.00;103942.03;5054926;28;20066;-81
2022/01/12 08:38:07;;;;;;;91.32;26.55;;;;;;;2.57;100.00;103945.66;5068260;28;20089;-81
2022/01/12 08:40:33;;;;;;;85.43;25.30;;;;;;;2.60;100.00;103933.91;5030871;28;20049;-81
2022/01/12 08:42:59;;;;;;;98.32;25.80;;;;;;;2.63;100.00;103935.78;5049683;28;20029;-81
2022/01/12 08:45:24;;;;;;;92.45;26.10;;;;;;;2.69;100.00;103931.00;5044097;28;20034;-81
2022/01/12 08:47:50;;;;;;;97.47;25.67;;;;;;;2.74;100.00;103933.03;5035019;28;20093;-81
2022/01/12 08:50:16;;;;;;;79.18;24.70;;;;;;;2.82;100.00;103940.28;5051001;28;20480;-81
2022/01/12 08:52:47;;;;;;;87.22;25.40;;;;;;;2.87;100.00;103933.72;5053295;28;20017;-81
2022/01/12 08:55:14;;;;;;;86.68;25.25;;;;;;;2.89;100.00;103943.28;5052883;28;20480;-81
2022/01/12 08:57:39;;;;;;;83.93;25.38;;;;;;;2.94;100.00;103948.66;5053777;28;20428;-81
2022/01/12 09:00:07;;;;;;;84.38;25.35;;;;;;;2.98;100.00;103948.94;5069763;28;20032;-81
2022/01/12 09:02:32;;;;;;;91.40;23.88;;;;;;;3.00;100.00;103942.22;5036733;28;20127;-82
2022/01/12 09:04:57;;;;;;;86.40;24.27;;;;;;;3.05;100.00;103948.50;5058208;28;20089;-82
2022/01/12 09:07:23;;;;;;;91.18;24.85;;;;;;;3.08;100.00;103956.34;5042868;28;20474;-83
2022/01/12 09:09:48;;;;;;;84.00;23.73;;;;;;;3.09;100.00;103955.56;5030886;28;20037;-79
2022/01/12 09:12:13;;;;;;;82.13;24.00;;;;;;;3.15;100.00;103967.81;5053076;28;20404;-83
2022/01/12 09:14:39;;;;;;;88.30;25.98;;;;;;;3.18;100.00;103962.88;5054823;28;20029;-78
2022/01/12 09:17:12;;;;;;;85.38;24.30;;;;;;;3.22;100.00;103979.31;5043148;28;20094;-81
2022/01/12 09:19:38;;;;;;;80.63;21.00;;;;;;;3.24;100.00;103972.59;5047271;28;21722;-79
2022/01/12 09:22:03;;;;;;;68.75;19.35;;;;;;;3.20;100.00;103969.00;5039175;28;20781;-79
2022/01/12 09:24:28;;;;;;;58.78;17.88;;;;;;;3.18;100.00;103968.91;5048106;28;20025;-83
2022/01/12 09:26:54;;;;;;;60.58;18.15;;;;;;;3.14;100.00;103982.31;5045436;28;20438;-80
2022/01/12 09:29:19;;;;;;;63.67;17.60;;;;;;;3.16;100.00;103985.84;5049272;28;20056;-80
2022/01/12 09:31:44;;;;;;;54.17;16.85;;;;;;;3.16;100.00;103993.53;5044844;28;20095;-80
2022/01/12 09:34:10;;;;;;;75.15;19.23;;;;;;;3.17;100.00;104000.44;5054141;28;20034;-81
2022/01/12 09:36:35;;;;;;;60.65;19.55;;;;;;;3.24;100.00;104001.69;5044007;28;20445;-81
2022/01/12 09:39:00;;;;;;;71.95;20.85;;;;;;;3.24;100.00;104011.03;5037209;28;20033;-81
2022/01/12 09:41:27;;;;;;;84.03;20.95;;;;;;;3.23;100.00;104007.59;5035710;28;20037;-80
2022/01/12 09:43:53;;;;;;;70.22;19.85;;;;;;;3.22;100.00;104007.50;5047097;28;20479;-80
2022/01/12 09:46:19;;;;;;;66.63;19.67;;;;;;;3.25;100.00;104020.50;5038932;28;20060;-80
2022/01/12 09:48:45;;;;;;;84.30;20.00;;;;;;;3.26;100.00;104015.47;5034574;28;20456;-80
2022/01/12 09:51:10;;;;;;;77.38;19.10;;;;;;;3.29;100.00;104017.31;5044309;28;20433;-80
2022/01/12 09:53:38;;;;;;;93.28;21.00;;;;;;;3.24;100.00;104016.16;5038306;28;20516;-80
2022/01/12 09:56:24;;;;;;;66.90;17.70;;;;;;;3.24;100.00;104023.88;5045235;28;20025;-82
2022/01/12 09:58:54;;;;;;;104.80;18.27;;;;;;;3.19;100.00;104028.72;5049578;28;20025;-86
2022/01/12 10:01:32;;;;;;;65.50;17.77;;;;;;;3.20;100.00;104032.19;5050856;28;20021;-82
2022/01/12 10:04:05;;;;;;;87.88;18.45;;;;;;;3.19;100.00;104028.72;5043877;28;20495;-80
2022/01/12 10:06:35;;;;;;;56.97;17.27;;;;;;;3.20;100.00;104032.19;5037900;28;20067;-81
2022/01/12 10:09:00;;;;;;;71.93;16.85;;;;;;;3.24;100.00;104036.69;5051284;28;20339;-81
2022/01/12 10:11:26;;;;;;;101.15;18.00;;;;;;;3.26;100.00;104043.69;5029058;28;20017;-81
2022/01/12 10:14:02;;;;;;;77.85;17.77;;;;;;;3.30;100.00;104042.16;5045285;28;20560;-81
2022/01/12 10:16:28;;;;;;;95.13;18.17;;;;;;;3.28;100.00;104039.50;5047035;28;20507;-80
2022/01/12 10:18:58;;;;;;;72.50;17.85;;;;;;;3.28;100.00;104043.72;5039235;28;20033;-81
2022/01/12 10:21:32;;;;;;;65.28;16.55;;;;;;;3.31;100.00;104038.81;5041690;28;20051;-81
2022/01/12 10:24:02;;;;;;;84.47;18.13;;;;;;;3.35;100.00;104049.31;5042494;28;20383;-81
2022/01/12 10:26:39;;;;;;;93.47;18.98;;;;;;;3.38;100.00;104028.09;5030393;28;20052;-81
2022/01/12 10:29:11;;;;;;;65.53;17.20;;;;;;;3.44;100.00;104031.00;5038967;28;20029;-81
2022/01/12 10:31:50;;;;;;;69.85;17.52;;;;;;;3.46;100.00;104021.72;5026383;28;20039;-81
2022/01/12 10:34:17;;;;;;;70.05;18.50;;;;;;;3.54;100.00;104025.63;5057910;28;20064;-81
2022/01/12 10:36:45;;;;;;;81.75;18.33;;;;;;;3.56;100.00;104039.38;5050040;28;20472;-81
2022/01/12 10:39:12;;;;;;;65.97;18.55;;;;;;;3.55;100.00;104032.47;5051097;28;20025;-80
2022/01/12 10:42:01;;;;;;;77.60;18.40;;;;;;;3.49;100.00;104039.84;5054920;28;20053;-81
2022/01/12 10:44:42;;;;;;;64.97;17.17;;;;;;;3.37;100.00;104031.47;5047616;28;20040;-81
2022/01/12 10:47:20;;;;;;;71.70;17.73;;;;;;;3.27;100.00;104045.44;5049772;28;20029;-81
2022/01/12 10:49:54;;;;;;;64.00;16.92;;;;;;;3.26;100.00;104043.69;5031553;28;20108;-81
2022/01/12 10:52:24;;;;;;;70.85;17.25;;;;;;;3.29;100.00;104036.13;5033928;28;20052;-81
2022/01/12 10:54:52;;;;;;;70.65;18.20;;;;;;;3.37;100.00;104044.28;5045728;28;20028;-81
2022/01/12 10:57:30;;;;;;;72.28;17.98;;;;;;;3.43;100.00;104050.63;5045764;28;20033;-81
2022/01/12 11:00:18;;;;;;;73.15;18.63;;;;;;;3.44;100.00;104051.53;5035503;28;20108;-80
2022/01/12 11:02:48;;;;;;;76.53;18.05;;;;;;;3.40;100.00;104050.47;5051897;28;20037;-80
2022/01/12 11:05:14;;;;;;;77.30;20.02;;;;;;;3.39;100.00;104045.25;5049828;28;20025;-77
2022/01/12 11:07:39;;;;;;;72.70;18.88;;;;;;;3.35;100.00;104033.91;5038301;28;20022;-78
2022/01/12 11:10:09;;;;;;;67.10;17.17;;;;;;;3.39;100.00;104030.75;5046838;28;20032;-79
2022/01/12 11:12:35;;;;;;;69.80;18.13;;;;;;;3.49;100.00;104040.72;5043850;28;20021;-81
2022/01/12 11:15:05;;;;;;;81.82;19.33;;;;;;;3.55;100.00;104047.88;5050117;28;20036;-82
2022/01/12 11:17:30;;;;;;;74.57;18.48;;;;;;;3.60;100.00;104043.91;5051446;28;20166;-81
2022/01/12 11:20:11;;;;;;;69.70;18.38;;;;;;;3.64;100.00;104042.38;5030290;28;20123;-82
2022/01/12 11:22:47;;;;;;;70.20;18.38;;;;;;;3.63;100.00;104044.06;5042230;28;20510;-82
2022/01/12 11:25:39;;;;;;;73.05;18.83;;;;;;;3.69;100.00;104053.78;5047359;28;20105;-81
2022/01/12 11:28:13;;;;;;;67.55;18.38;;;;;;;3.52;100.00;104053.72;5045394;28;20025;-81
2022/01/12 11:30:45;;;;;;;69.20;17.60;;;;;;;3.45;100.00;104045.59;5042772;28;20105;-80
2022/01/12 11:33:12;;;;;;;60.33;16.77;;;;;;;3.40;100.00;104057.28;5050323;28;20024;-83
2022/01/12 11:35:46;;;;;;;65.60;17.65;;;;;;;3.33;100.00;104060.28;5033410;28;20577;-80
2022/01/12 11:38:21;;;;;;;;;;;;;;;3.35;100.00;104053.53;5057289;28;20036;-81
2022/01/12 11:40:47;;;;;;;65.63;17.57;;;;;;;3.44;100.00;104049.84;5041799;28;19924;-81
2022/01/12 11:43:22;;;;;;;63.60;16.35;;;;;;;3.56;100.00;104049.66;5044188;28;20025;-81
2022/01/12 11:46:07;;;;;;;63.65;17.10;;;;;;;3.64;100.00;104047.50;5049937;28;20013;-81
2022/01/12 11:48:36;;;;;;;66.53;16.35;;;;;;;3.73;100.00;104030.97;5053655;28;20025;-81
2022/01/12 11:51:02;;;;;;;61.30;17.13;;;;;;;3.83;100.00;104028.09;5030408;28;20116;-80
2022/01/12 11:53:30;;;;;;;66.45;16.63;;;;;;;3.90;100.00;104022.50;5053153;28;20104;-81
2022/01/12 11:56:09;;;;;;;68.85;17.70;;;;;;;3.96;100.00;104021.94;5048755;28;20025;-81
2022/01/12 11:58:34;;;;;;;67.25;16.75;;;;;;;4.04;100.00;104033.53;5031824;28;20388;-81
2022/01/12 12:00:59;;;;;;;63.05;18.35;;;;;;;4.10;100.00;104045.78;4342810;28;10000070;-81
2022/01/12 12:03:26;;;;;;;64.50;17.33;;;;;;;4.14;100.00;104042.63;5041791;28;20032;-80
2022/01/12 12:05:54;;;;;;;62.75;16.52;;;;;;;4.13;100.00;104044.28;5040158;28;20017;-81
2022/01/12 12:08:24;;;;;;;56.75;15.68;;;;;;;4.07;100.00;104043.97;5053682;28;20451;-81
2022/01/12 12:10:53;;;;;;;63.88;16.73;;;;;;;4.06;100.00;104051.56;5040968;28;20448;-81
2022/01/12 12:13:21;;;;;;;62.45;16.95;;;;;;;3.99;100.00;104047.78;5045304;28;20283;-81
2022/01/12 12:15:46;;;;;;;57.72;17.17;;;;;;;3.97;100.00;104044.25;5039664;28;20020;-81
2022/01/12 12:18:12;;;;;;;62.55;16.70;;;;;;;4.00;100.00;104038.41;5047444;28;20249;-81
2022/01/12 12:20:37;;;;;;;58.13;16.35;;;;;;;4.11;100.00;104047.56;5048174;28;20090;-81
2022/01/12 12:23:02;;;;;;;60.85;16.38;;;;;;;4.17;100.00;104043.66;5042866;28;20044;-81